MV Causeway Supplier — ZR2426 — position and weather

sailwx.info

Track history (hours):
 
Tides and Currents Weather Stations Pressure Air Temp Water Temp Dewpoint Dewpoint Depression Visibility Wind Speed Wind Dir Waves Ship Positions

MV Causeway Supplier

Last reported at 2014-Jul-21 12:33 UTC. Time now 2014-Jul-23 01:18 UTC.
Position S 29°54' E 031°00'.

Length 22 m; draft 2.7 m.

Type: . MMSI: 601041200.

Date/timePositionNaut miles runAvg speedWind from/ knotsBaromVisibWave heightAir tempDewpointWater temp
2014-Jul-21 12:33S 29°54' E 031°00'0 0.0
2014-Jul-21 11:33S 29°54' E 031°00'0 0.0
2014-Jul-21 10:33S 29°54' E 031°00'0 0.0
2014-Jul-21 09:33S 29°54' E 031°00'0 0.0
2014-Jul-21 08:33S 29°54' E 031°00'0 0.0
2014-Jul-21 07:33S 29°54' E 031°00'0 0.0
2014-Jul-21 06:33S 29°54' E 031°00'0 0.0
2014-Jul-21 05:28S 29°54' E 031°00'0 0.0
2014-Jul-21 04:33S 29°54' E 031°00'0 0.0
2014-Jul-21 03:33S 29°54' E 031°00'0 0.0
2014-Jul-21 02:33S 29°54' E 031°00'0 0.0
2014-Jul-21 01:33S 29°54' E 031°00'0 0.0
2014-Jul-21 00:33S 29°54' E 031°00'0 0.0
2014-Jul-20 23:33S 29°54' E 031°00'0 0.0
2014-Jul-20 22:33S 29°54' E 031°00'0 0.0
2014-Jul-20 21:33S 29°54' E 031°00'0 0.0
2014-Jul-20 20:33S 29°54' E 031°00'0 0.0
2014-Jul-20 19:33S 29°54' E 031°00'0 0.0
2014-Jul-20 18:33S 29°54' E 031°00'0 0.0
2014-Jul-20 17:33S 29°54' E 031°00'0 0.0
2014-Jul-20 16:33S 29°54' E 031°00'0 0.0
2014-Jul-20 15:33S 29°54' E 031°00'0 0.0
2014-Jul-20 14:33S 29°54' E 031°00'0 0.0
2014-Jul-20 13:33S 29°54' E 031°00'0 0.0
2014-Jul-20 12:33S 29°54' E 031°00'0 0.0
2014-Jul-20 11:33S 29°54' E 031°00'0 0.0
2014-Jul-20 10:33S 29°54' E 031°00'0 0.0
2014-Jul-20 09:33S 29°54' E 031°00'0 0.0
2014-Jul-20 08:33S 29°54' E 031°00'0 0.0
2014-Jul-20 07:33S 29°54' E 031°00'0 0.0
2014-Jul-20 06:33S 29°54' E 031°00'0 0.0
2014-Jul-20 05:33S 29°54' E 031°00'0 0.0
2014-Jul-20 04:33S 29°54' E 031°00'0 0.0
2014-Jul-20 03:33S 29°54' E 031°00'0 0.0
2014-Jul-20 02:33S 29°54' E 031°00'0 0.0
2014-Jul-19 10:17S 29°54' E 031°00'4 4.9
2014-Jul-19 09:33S 29°52' E 031°04'8 8.2
2014-Jul-19 08:33S 30°00' E 031°02'164 7.7
2014-Jul-18 11:26S 32°08' E 029°03'155 8.0
2014-Jul-17 16:05S 33°46' E 026°40'42 8.8
2014-Jul-17 11:22S 34°02' E 025°54'7 8.5
2014-Jul-17 10:32S 34°04' E 025°45'10 8.7
2014-Jul-17 09:26S 34°06' E 025°34'363 8.0
2014-Jul-15 12:19S 34°08' E 018°16'15 3.1
2014-Jul-15 07:21S 33°54' E 018°23'3 0.1
2014-Jul-13 17:21S 33°55' E 018°27'2 1.1
2014-Jul-13 15:34S 33°53' E 018°26'3 2.6
2014-Jul-13 14:33S 33°51' E 018°26'5 4.6
2014-Jul-13 13:33S 33°55' E 018°27'0 0.0
2014-Jul-13 12:33S 33°55' E 018°27'0 0.0
2014-Jul-13 11:33S 33°55' E 018°27'0 0.0
2014-Jul-11 21:25S 33°55' E 018°27'  
Track history (hours):
 
Tides and Currents Weather Stations Pressure Air Temp Water Temp Dewpoint Dewpoint Depression Visibility Wind Speed Wind Dir Waves Ship Positions

MV Causeway Supplier

Last reported at 2014-Jul-21 12:33 UTC. Time now 2014-Jul-23 01:18 UTC.
Position S 29°54' E 031°00'.

Length 22 m; draft 2.7 m.

Type: . MMSI: 601041200.

Date/timePositionNaut miles runAvg speedWind from/ knotsBaromVisibWave heightAir tempDewpointWater temp
2014-Jul-21 12:33S 29°54' E 031°00'0 0.0
2014-Jul-21 11:33S 29°54' E 031°00'0 0.0
2014-Jul-21 10:33S 29°54' E 031°00'0 0.0
2014-Jul-21 09:33S 29°54' E 031°00'0 0.0
2014-Jul-21 08:33S 29°54' E 031°00'0 0.0
2014-Jul-21 07:33S 29°54' E 031°00'0 0.0
2014-Jul-21 06:33S 29°54' E 031°00'0 0.0
2014-Jul-21 05:28S 29°54' E 031°00'0 0.0
2014-Jul-21 04:33S 29°54' E 031°00'0 0.0
2014-Jul-21 03:33S 29°54' E 031°00'0 0.0
2014-Jul-21 02:33S 29°54' E 031°00'0 0.0
2014-Jul-21 01:33S 29°54' E 031°00'0 0.0
2014-Jul-21 00:33S 29°54' E 031°00'0 0.0
2014-Jul-20 23:33S 29°54' E 031°00'0 0.0
2014-Jul-20 22:33S 29°54' E 031°00'0 0.0
2014-Jul-20 21:33S 29°54' E 031°00'0 0.0
2014-Jul-20 20:33S 29°54' E 031°00'0 0.0
2014-Jul-20 19:33S 29°54' E 031°00'0 0.0
2014-Jul-20 18:33S 29°54' E 031°00'0 0.0
2014-Jul-20 17:33S 29°54' E 031°00'0 0.0
2014-Jul-20 16:33S 29°54' E 031°00'0 0.0
2014-Jul-20 15:33S 29°54' E 031°00'0 0.0
2014-Jul-20 14:33S 29°54' E 031°00'0 0.0
2014-Jul-20 13:33S 29°54' E 031°00'0 0.0
2014-Jul-20 12:33S 29°54' E 031°00'0 0.0
2014-Jul-20 11:33S 29°54' E 031°00'0 0.0
2014-Jul-20 10:33S 29°54' E 031°00'0 0.0
2014-Jul-20 09:33S 29°54' E 031°00'0 0.0
2014-Jul-20 08:33S 29°54' E 031°00'0 0.0
2014-Jul-20 07:33S 29°54' E 031°00'0 0.0
2014-Jul-20 06:33S 29°54' E 031°00'0 0.0
2014-Jul-20 05:33S 29°54' E 031°00'0 0.0
2014-Jul-20 04:33S 29°54' E 031°00'0 0.0
2014-Jul-20 03:33S 29°54' E 031°00'0 0.0
2014-Jul-20 02:33S 29°54' E 031°00'0 0.0
2014-Jul-19 10:17S 29°54' E 031°00'4 4.9
2014-Jul-19 09:33S 29°52' E 031°04'8 8.2
2014-Jul-19 08:33S 30°00' E 031°02'164 7.7
2014-Jul-18 11:26S 32°08' E 029°03'155 8.0
2014-Jul-17 16:05S 33°46' E 026°40'42 8.8
2014-Jul-17 11:22S 34°02' E 025°54'7 8.5
2014-Jul-17 10:32S 34°04' E 025°45'10 8.7
2014-Jul-17 09:26S 34°06' E 025°34'363 8.0
2014-Jul-15 12:19S 34°08' E 018°16'15 3.1
2014-Jul-15 07:21S 33°54' E 018°23'3 0.1
2014-Jul-13 17:21S 33°55' E 018°27'2 1.1
2014-Jul-13 15:34S 33°53' E 018°26'3 2.6
2014-Jul-13 14:33S 33°51' E 018°26'5 4.6
2014-Jul-13 13:33S 33°55' E 018°27'0 0.0
2014-Jul-13 12:33S 33°55' E 018°27'0 0.0
2014-Jul-13 11:33S 33°55' E 018°27'0 0.0
2014-Jul-11 21:25S 33°55' E 018°27'  

Dump ship's entire track history